Time;durP1;ratioP1;P1;durP2;ratioP2;P2;SDS_P1;SDS_P2;PMS_P1;PMS_P2;Temp;Humidity;BMP_temperature;BMP_pressure;BME280_temperature;BME280_humidity;BME280_pressure;Samples;Min_cycle;Max_cycle;Signal;HPM_P1;HPM_P2
2022/05/05 00:00:52;;;;;;;;;;;;;;;9.55;50.99;100488.03;4929398;29;1600;-96
2022/05/05 00:03:19;;;;;;;;;;;;;;;9.54;50.82;100480.22;4927789;29;1432;-96
2022/05/05 00:05:45;;;;;;;;;;;;;;;9.53;50.79;100475.88;4944136;29;2005;-96
2022/05/05 00:08:12;;;;;;;;;;;;;;;9.53;50.76;100478.56;4925385;29;1342;-96
2022/05/05 00:16:07;;;;;;;;;;;;;;;9.51;50.76;100480.63;4928972;29;1925;-96
2022/05/05 00:18:35;;;;;;;;;;;;;;;9.50;50.91;100479.81;4937433;29;1688;-96
2022/05/05 00:21:01;;;;;;;;;;;;;;;9.51;50.75;100478.78;4923036;29;1415;-96
2022/05/05 00:23:28;;;;;;;;;;;;;;;9.49;51.02;100480.84;4926538;29;2156;-96
2022/05/05 00:25:55;;;;;;;;;;;;;;;9.49;51.09;100478.16;4937351;29;1417;-95
2022/05/05 00:28:22;;;;;;;;;;;;;;;9.48;50.75;100470.31;4937189;29;1784;-96
2022/05/05 00:30:49;;;;;;;;;;;;;;;9.48;50.99;100478.38;4935561;29;1351;-96
2022/05/05 00:33:15;;;;;;;;;;;;;;;9.47;51.01;100469.50;4937400;29;1958;-96
2022/05/05 00:35:42;;;;;;;;;;;;;;;9.47;51.02;100472.19;4922424;29;1976;-96
2022/05/05 00:38:08;;;;;;;;;;;;;;;9.46;51.07;100472.38;4937831;29;1226;-96
2022/05/05 00:40:35;;;;;;;;;;;;;;;9.45;50.99;100476.94;4935579;29;1735;-96
2022/05/05 00:43:03;;;;;;;;;;;;;;;9.45;50.95;100479.63;4938265;29;1206;-96
2022/05/05 00:45:29;;;;;;;;;;;;;;;9.44;50.85;100472.63;4924347;29;1751;-96
2022/05/05 00:47:56;;;;;;;;;;;;;;;9.44;50.79;100477.13;4937594;29;1421;-96
2022/05/05 00:50:22;;;;;;;;;;;;;;;9.43;50.83;100473.63;4930351;29;1926;-96
2022/05/05 00:52:49;;;;;;;;;;;;;;;9.43;50.93;100473.63;4936303;29;1796;-96
2022/05/05 00:55:15;;;;;;;;;;;;;;;9.43;51.04;100467.44;4927108;29;1978;-96
2022/05/05 00:57:42;;;;;;;;;;;;;;;9.41;50.80;100472.19;4918833;29;1312;-96
2022/05/05 01:00:09;;;;;;;;;;;;;;;9.42;50.94;100471.19;4929328;29;2153;-96
2022/05/05 01:02:36;;;;;;;;;;;;;;;9.42;50.84;100468.47;4918939;29;1358;-96
2022/05/05 01:05:02;;;;;;;;;;;;;;;9.40;50.80;100462.50;4920843;29;2431;-96
2022/05/05 01:07:29;;;;;;;;;;;;;;;9.40;50.82;100473.25;4930241;29;2211;-96
2022/05/05 01:09:56;;;;;;;;;;;;;;;9.39;50.77;100472.41;4932031;29;1786;-96
2022/05/05 01:12:23;;;;;;;;;;;;;;;9.39;50.94;100479.66;4920376;29;1203;-96
2022/05/05 01:14:50;;;;;;;;;;;;;;;9.38;50.88;100476.13;4919827;29;2235;-96
2022/05/05 01:17:16;;;;;;;;;;;;;;;9.37;51.01;100474.50;4934305;29;1811;-96
2022/05/05 01:19:43;;;;;;;;;;;;;;;9.37;50.97;100470.97;4934799;29;2217;-96
2022/05/05 01:22:10;;;;;;;;;;;;;;;9.36;50.99;100470.16;4936015;29;1337;-96
2022/05/05 01:30:06;;;;;;;;;;;;;;;9.34;50.94;100469.53;4930835;29;1611;-96
2022/05/05 01:32:33;;;;;;;;;;;;;;;9.33;51.03;100467.91;4940506;29;1239;-96
2022/05/05 01:34:59;;;;;;;;;;;;;;;9.33;51.16;100463.34;4939222;29;2271;-96
2022/05/05 01:37:26;;;;;;;;;;;;;;;9.32;50.80;100455.47;4940561;29;1271;-96
2022/05/05 01:39:52;;;;;;;;;;;;;;;9.30;50.99;100458.41;4938179;29;1624;-96
2022/05/05 01:42:19;;;;;;;;;;;;;;;9.31;50.90;100460.03;4940333;29;1187;-96
2022/05/05 01:44:45;;;;;;;;;;;;;;;9.30;51.05;100444.97;4935663;29;2149;-96
2022/05/05 01:47:13;;;;;;;;;;;;;;;9.30;51.10;100450.34;4928608;29;2126;-96
2022/05/05 01:49:40;;;;;;;;;;;;;;;9.30;50.84;100455.72;4931295;29;1370;-96
2022/05/05 01:52:06;;;;;;;;;;;;;;;9.29;50.86;100453.22;4921342;29;1439;-96
2022/05/05 01:54:33;;;;;;;;;;;;;;;9.29;50.88;100464.81;4929192;29;1659;-96
2022/05/05 01:56:59;;;;;;;;;;;;;;;9.26;50.96;100465.22;4940119;29;1919;-96
2022/05/05 01:59:26;;;;;;;;;;;;;;;9.27;50.97;100463.38;4929661;29;2030;-96
2022/05/05 02:01:52;;;;;;;;;;;;;;;9.27;50.80;100464.19;4930792;29;1750;-96
2022/05/05 02:04:19;;;;;;;;;;;;;;;9.26;51.23;100461.72;4930798;29;2253;-96
2022/05/05 02:06:46;;;;;;;;;;;;;;;9.25;50.86;100457.38;4931721;29;1576;-96
2022/05/05 02:09:12;;;;;;;;;;;;;;;9.25;50.79;100458.19;4921923;29;1422;-96
2022/05/05 02:11:41;;;;;;;;;;;;;;;9.24;50.97;100459.25;4939851;29;1322;-96
2022/05/05 02:14:08;;;;;;;;;;;;;;;9.23;50.93;100459.44;4954600;29;1347;-96
2022/05/05 02:16:34;;;;;;;;;;;;;;;9.21;50.91;100462.38;4937068;29;1899;-96
2022/05/05 02:19:01;;;;;;;;;;;;;;;9.22;50.82;100463.19;4934312;29;2236;-96
2022/05/05 02:21:27;;;;;;;;;;;;;;;9.21;51.10;100453.50;4920830;29;1199;-96
2022/05/05 02:23:54;;;;;;;;;;;;;;;9.20;51.21;100454.50;4923081;28;2011;-96
2022/05/05 02:26:20;;;;;;;;;;;;;;;9.18;51.04;100460.09;4926685;29;1369;-96
2022/05/05 02:28:49;;;;;;;;;;;;;;;9.18;50.95;100452.03;4927416;29;1974;-96
2022/05/05 02:31:15;;;;;;;;;;;;;;;9.17;50.91;100455.75;4928249;29;1605;-96
2022/05/05 02:33:42;;;;;;;;;;;;;;;9.16;50.86;100464.84;4919838;29;1766;-96
2022/05/05 02:38:55;;;;;;;;;;;;;;;9.14;51.04;100456.19;4934419;29;2304;-96
2022/05/05 02:41:21;;;;;;;;;;;;;;;9.13;51.04;100457.22;4936390;29;2294;-96
2022/05/05 02:43:48;;;;;;;;;;;;;;;9.13;51.21;100461.78;4935800;29;1955;-96
2022/05/05 02:46:15;;;;;;;;;;;;;;;9.13;51.16;100453.72;4935896;29;1855;-96
2022/05/05 02:48:41;;;;;;;;;;;;;;;9.12;51.01;100449.38;4933139;29;2002;-96
2022/05/05 02:51:08;;;;;;;;;;;;;;;9.11;51.18;100448.53;4932544;29;1341;-96
2022/05/05 02:56:19;;;;;;;;;;;;;;;9.10;50.84;100446.91;4935573;29;1907;-96
2022/05/05 02:58:45;;;;;;;;;;;;;;;9.09;51.02;100447.94;4933898;29;2279;-96
2022/05/05 03:01:12;;;;;;;;;;;;;;;9.08;50.99;100447.09;4920069;29;2217;-96
2022/05/05 03:03:39;;;;;;;;;;;;;;;9.07;51.23;100448.16;4938160;29;2310;-96
2022/05/05 03:06:05;;;;;;;;;;;;;;;9.06;51.03;100438.44;4933540;29;1206;-96
2022/05/05 03:08:32;;;;;;;;;;;;;;;9.05;51.22;100434.09;4936848;29;2012;-96
2022/05/05 03:10:58;;;;;;;;;;;;;;;9.04;50.98;100429.78;4935760;29;1219;-95
2022/05/05 03:13:25;;;;;;;;;;;;;;;9.05;51.22;100430.59;4926555;29;2020;-96
2022/05/05 03:15:51;;;;;;;;;;;;;;;9.04;51.05;100427.09;4936803;29;1911;-96
2022/05/05 03:18:18;;;;;;;;;;;;;;;9.02;51.20;100426.47;4939400;29;1953;-96
2022/05/05 03:20:44;;;;;;;;;;;;;;;9.01;50.92;100422.13;4938280;29;2521;-96
2022/05/05 03:23:11;;;;;;;;;;;;;;;8.99;51.15;100413.44;4939276;29;1219;-96
2022/05/05 03:25:38;;;;;;;;;;;;;;;9.00;51.33;100423.19;4920700;29;1697;-96
2022/05/05 03:28:05;;;;;;;;;;;;;;;9.00;51.00;100411.59;4940302;29;1318;-96
2022/05/05 03:30:31;;;;;;;;;;;;;;;8.99;51.25;100412.63;4935253;29;2287;-96
2022/05/05 03:32:58;;;;;;;;;;;;;;;8.98;51.24;100409.13;4940447;29;1353;-96
2022/05/05 03:35:24;;;;;;;;;;;;;;;8.98;51.07;100408.31;4934271;29;2209;-96
2022/05/05 03:37:51;;;;;;;;;;;;;;;8.96;51.19;100411.19;4926084;29;1465;-96
2022/05/05 03:40:18;;;;;;;;;;;;;;;8.96;51.05;100407.69;4930345;29;2012;-96
2022/05/05 03:42:45;;;;;;;;;;;;;;;8.95;51.10;100406.88;4939087;29;1309;-96
2022/05/05 03:45:12;;;;;;;;;;;;;;;8.96;51.00;100410.38;4926730;29;1891;-96
2022/05/05 03:47:38;;;;;;;;;;;;;;;8.94;51.10;100412.44;4926415;29;1286;-96
2022/05/05 03:50:05;;;;;;;;;;;;;;;8.94;51.17;100418.66;4937497;29;2613;-96
2022/05/05 03:52:31;;;;;;;;;;;;;;;8.93;51.25;100424.22;4933044;29;1329;-96
2022/05/05 03:54:58;;;;;;;;;;;;;;;8.93;51.34;100434.97;4926626;29;2069;-96
2022/05/05 03:57:24;;;;;;;;;;;;;;;8.92;51.13;100430.66;4935599;29;1959;-96
2022/05/05 03:59:51;;;;;;;;;;;;;;;8.92;51.15;100423.41;4946145;29;1729;-96
2022/05/05 04:02:18;;;;;;;;;;;;;;;8.91;51.21;100416.38;4935840;29;1628;-96
2022/05/05 04:04:44;;;;;;;;;;;;;;;8.90;51.30;100419.28;4935987;29;1465;-96
2022/05/05 04:07:11;;;;;;;;;;;;;;;8.89;51.09;100417.66;4937397;29;1548;-96
2022/05/05 04:09:37;;;;;;;;;;;;;;;8.87;50.92;100418.66;4935283;29;1515;-96
2022/05/05 04:12:04;;;;;;;;;;;;;;;8.86;51.38;100406.28;4938621;29;1329;-96
2022/05/05 04:14:33;;;;;;;;;;;;;;;8.84;51.35;100404.84;4936877;29;1893;-95
2022/05/05 04:17:00;;;;;;;;;;;;;;;8.85;51.32;100396.59;4922730;29;2020;-96
2022/05/05 04:19:27;;;;;;;;;;;;;;;8.85;51.29;100391.22;4906992;29;2570;-95
2022/05/05 04:21:54;;;;;;;;;;;;;;;8.85;51.20;100395.72;4938407;29;1231;-96
2022/05/05 04:24:20;;;;;;;;;;;;;;;8.84;51.12;100400.28;4918022;29;2122;-96
2022/05/05 04:26:47;;;;;;;;;;;;;;;8.82;51.31;100391.63;4920947;29;1635;-96
2022/05/05 04:29:13;;;;;;;;;;;;;;;8.82;51.05;100397.00;4930474;29;1795;-96
2022/05/05 04:31:40;;;;;;;;;;;;;;;8.83;51.32;100411.25;4937386;29;1763;-96
2022/05/05 04:34:06;;;;;;;;;;;;;;;8.82;51.42;100404.22;4931322;29;2072;-96
2022/05/05 04:36:35;;;;;;;;;;;;;;;8.82;51.13;100412.28;4919053;29;1923;-96
2022/05/05 04:39:01;;;;;;;;;;;;;;;8.82;51.01;100404.22;4952466;29;2254;-96
2022/05/05 04:41:28;;;;;;;;;;;;;;;8.80;51.28;100404.44;4937405;29;2161;-96
2022/05/05 04:43:54;;;;;;;;;;;;;;;8.80;51.29;100399.06;4936914;29;2331;-96
2022/05/05 04:46:20;;;;;;;;;;;;;;;8.80;51.13;100406.31;4937332;29;1791;-96
2022/05/05 04:48:48;;;;;;;;;;;;;;;8.79;51.03;100410.84;4923340;29;1699;-96
2022/05/05 04:51:14;;;;;;;;;;;;;;;8.79;51.09;100401.97;4948062;29;1286;-96
2022/05/05 04:53:44;;;;;;;;;;;;;;;8.78;51.05;100406.50;4936832;29;1698;-96
2022/05/05 04:56:12;;;;;;;;;;;;;;;8.79;51.12;100404.63;4932219;29;2059;-96
2022/05/05 04:58:39;;;;;;;;;;;;;;;8.78;50.88;100411.06;4935267;29;1913;-96
2022/05/05 05:01:05;;;;;;;;;;;;;;;8.78;50.91;100414.56;4931640;29;4803;-96
2022/05/05 05:03:36;;;;;;;;;;;;;;;8.77;51.12;100418.28;4935257;29;1712;-96
2022/05/05 05:06:02;;;;;;;;;;;;;;;8.78;51.07;100422.63;4936124;29;1938;-96
2022/05/05 05:08:29;;;;;;;;;;;;;;;8.78;51.29;100421.81;4934952;29;3383;-96
2022/05/05 05:10:56;;;;;;;;;;;;;;;8.77;51.11;100415.63;4930127;29;1847;-96
2022/05/05 05:13:22;;;;;;;;;;;;;;;8.77;50.99;100409.41;4924829;29;2266;-96
2022/05/05 05:15:49;;;;;;;;;;;;;;;8.76;51.00;100413.94;4948450;28;2746;-96
2022/05/05 05:18:15;;;;;;;;;;;;;;;8.75;51.01;100417.66;4936365;29;2255;-96
2022/05/05 05:20:42;;;;;;;;;;;;;;;8.76;50.81;100421.19;4933356;29;1984;-96
2022/05/05 05:23:08;;;;;;;;;;;;;;;8.77;51.20;100422.84;4924397;29;2119;-96
2022/05/05 05:25:35;;;;;;;;;;;;;;;8.76;51.18;100416.63;4933977;29;2905;-96
2022/05/05 05:28:02;;;;;;;;;;;;;;;8.76;50.96;100426.56;4940090;29;1436;-96
2022/05/05 05:30:28;;;;;;;;;;;;;;;8.76;50.76;100419.31;4931851;29;3329;-96
2022/05/05 05:32:55;;;;;;;;;;;;;;;8.77;51.02;100423.66;4927465;29;1274;-96
2022/05/05 05:35:21;;;;;;;;;;;;;;;8.76;50.93;100418.50;4933338;29;2787;-96
2022/05/05 05:37:48;;;;;;;;;;;;;;;8.76;51.00;100422.00;4935931;29;1981;-96
2022/05/05 05:40:15;;;;;;;;;;;;;;;8.76;51.04;100426.56;4918278;29;2221;-96
2022/05/05 05:42:41;;;;;;;;;;;;;;;8.75;50.86;100423.03;4934287;29;3327;-96
2022/05/05 05:45:08;;;;;;;;;;;;;;;8.75;50.96;100423.03;4940171;29;4833;-96
2022/05/05 05:47:34;;;;;;;;;;;;;;;8.75;50.89;100424.91;4955315;28;2067;-95
2022/05/05 05:50:01;;;;;;;;;;;;;;;8.74;50.97;100410.66;4933712;29;2047;-95
2022/05/05 05:52:31;;;;;;;;;;;;;;;8.74;50.91;100423.28;4930524;29;2091;-96
2022/05/05 05:54:59;;;;;;;;;;;;;;;8.75;50.70;100427.59;4939983;29;2420;-96
2022/05/05 05:57:25;;;;;;;;;;;;;;;8.75;50.83;100423.03;4929038;29;1974;-95
2022/05/05 05:59:52;;;;;;;;;;;;;;;8.75;50.50;100428.41;4931470;29;2245;-96
2022/05/05 06:05:03;;;;;;;;;;;;;;;8.74;50.78;100415.22;4923684;29;3996;-94
2022/05/05 06:07:29;;;;;;;;;;;;;;;8.74;50.94;100412.53;4930761;29;1988;-95
2022/05/05 06:09:56;;;;;;;;;;;;;;;8.74;50.91;100415.22;4926223;29;2307;-95
2022/05/05 06:12:22;;;;;;;;;;;;;;;8.74;50.88;100418.72;4934766;29;2015;-95
2022/05/05 06:14:49;;;;;;;;;;;;;;;8.75;50.80;100424.91;4930778;29;4743;-95
2022/05/05 06:17:16;;;;;;;;;;;;;;;8.75;50.72;100425.72;4932734;29;1982;-94
2022/05/05 06:19:43;;;;;;;;;;;;;;;8.75;50.75;100422.22;4926735;29;2356;-95
2022/05/05 06:22:09;;;;;;;;;;;;;;;8.74;50.63;100425.97;4924374;29;2511;-95
2022/05/05 06:24:36;;;;;;;;;;;;;;;8.75;50.61;100428.41;4934736;29;2557;-95
2022/05/05 06:27:02;;;;;;;;;;;;;;;8.75;50.80;100444.53;4923009;29;2201;-95
2022/05/05 06:34:54;;;;;;;;;;;;;;;8.75;50.44;100430.28;5753765;23;3464;-96
2022/05/05 06:37:22;;;;;;;;;;;;;;;8.74;50.67;100428.63;4927981;29;2119;-95
2022/05/05 06:39:49;;;;;;;;;;;;;;;8.75;50.57;100424.91;4911221;29;2368;-94
2022/05/05 06:42:15;;;;;;;;;;;;;;;8.75;50.48;100423.03;4941308;29;1998;-94
2022/05/05 06:44:42;;;;;;;;;;;;;;;8.74;50.64;100424.09;4925696;29;2672;-94
2022/05/05 06:47:08;;;;;;;;;;;;;;;8.77;50.44;100422.84;4943962;29;2205;-94
2022/05/05 06:49:35;;;;;;;;;;;;;;;8.76;50.30;100423.88;4926645;29;2440;-93
2022/05/05 06:52:01;;;;;;;;;;;;;;;8.78;50.42;100436.03;4930291;29;2019;-94
2022/05/05 06:54:28;;;;;;;;;;;;;;;8.77;50.59;100426.34;4917077;29;2626;-94
2022/05/05 06:56:54;;;;;;;;;;;;;;;8.76;50.47;100435.41;4917592;29;2478;-94
2022/05/05 06:59:21;;;;;;;;;;;;;;;8.77;50.37;100433.59;4924068;29;2267;-94
2022/05/05 07:01:55;;;;;;;;;;;;;;;8.78;50.37;100428.00;4925529;29;2048;-94
2022/05/05 07:07:06;;;;;;;;;;;;;;;8.77;50.29;100430.91;4932127;29;2625;-94
2022/05/05 07:14:55;;;;;;;;;;;;;;;8.80;50.46;100434.00;5330589;23;3599;-96
2022/05/05 07:20:12;;;;;;;;;;;;;;;8.80;50.60;100427.78;4951418;29;1406;-96
2022/05/05 07:22:41;;;;;;;;;;;;;;;8.78;50.54;100430.69;4962124;28;1312;-96
2022/05/05 07:25:10;;;;;;;;;;;;;;;8.78;50.59;100419.13;4972312;29;850;-96
2022/05/05 07:27:36;;;;;;;;;;;;;;;8.77;50.58;100418.28;4929208;29;1306;-96
2022/05/05 07:30:03;;;;;;;;;;;;;;;8.78;50.63;100428.00;4932769;29;2258;-96
2022/05/05 07:32:29;;;;;;;;;;;;;;;8.78;50.58;100419.13;4932229;29;1564;-96
2022/05/05 07:34:56;;;;;;;;;;;;;;;8.78;50.46;100419.94;4945159;29;2411;-96
2022/05/05 07:37:23;;;;;;;;;;;;;;;8.78;50.55;100416.44;4937901;29;2078;-96
2022/05/05 07:39:49;;;;;;;;;;;;;;;8.79;50.44;100416.19;4945213;29;1635;-96
2022/05/05 07:42:16;;;;;;;;;;;;;;;8.79;50.58;100418.88;4942843;29;2254;-96
2022/05/05 07:44:42;;;;;;;;;;;;;;;8.80;50.49;100417.06;4939124;29;2700;-96
2022/05/05 07:47:09;;;;;;;;;;;;;;;8.79;50.77;100418.06;4950913;28;1541;-96
2022/05/05 07:49:35;;;;;;;;;;;;;;;8.81;50.42;100418.69;4955563;28;1515;-96
2022/05/05 07:52:02;;;;;;;;;;;;;;;8.81;50.70;100416.81;4945432;29;1592;-96
2022/05/05 07:54:43;;;;;;;;;;;;;;;8.81;50.44;100416.00;4954299;29;1825;-96
2022/05/05 07:57:11;;;;;;;;;;;;;;;8.81;50.67;100422.19;4951404;29;1964;-96
2022/05/05 07:59:38;;;;;;;;;;;;;;;8.82;50.60;100421.19;4945005;29;1647;-96
2022/05/05 08:02:04;;;;;;;;;;;;;;;8.83;50.58;100420.13;4944778;29;1319;-96
2022/05/05 08:04:32;;;;;;;;;;;;;;;8.85;50.40;100430.66;4948048;29;2376;-96
2022/05/05 08:07:00;;;;;;;;;;;;;;;8.87;50.70;100434.78;4954552;29;1118;-96
2022/05/05 08:09:27;;;;;;;;;;;;;;;8.87;50.60;100428.59;4942892;29;1675;-96
2022/05/05 08:11:53;;;;;;;;;;;;;;;8.87;50.76;100423.22;4939328;29;1573;-96
2022/05/05 08:14:20;;;;;;;;;;;;;;;8.88;50.54;100424.84;4946542;29;1402;-96
2022/05/05 08:16:47;;;;;;;;;;;;;;;8.90;50.55;100424.66;4962635;29;1903;-96
2022/05/05 08:19:13;;;;;;;;;;;;;;;8.93;50.73;100434.97;4969597;29;1200;-96
2022/05/05 08:21:43;;;;;;;;;;;;;;;8.94;50.65;100434.78;4970272;29;1564;-96
2022/05/05 08:29:47;;;;;;;;;;;;;;;8.94;50.80;100426.72;4986612;28;1500;-96
2022/05/05 08:32:14;;;;;;;;;;;;;;;8.95;50.75;100436.41;4953384;29;1243;-96
2022/05/05 08:34:41;;;;;;;;;;;;;;;8.97;50.51;100425.44;4954901;29;1368;-96
2022/05/05 08:53:16;;;;;;;;;;;;;;;9.00;51.00;100422.34;5109067;28;2547;-94
2022/05/05 08:55:43;;;;;;;;;;;;;;;9.01;51.03;100424.81;5110614;28;2323;-96
2022/05/05 08:58:10;;;;;;;;;;;;;;;9.01;51.05;100422.13;5150089;27;1906;-95
2022/05/05 09:00:36;;;;;;;;;;;;;;;8.99;50.98;100421.50;5153698;27;1616;-95
2022/05/05 09:03:04;;;;;;;;;;;;;;;9.01;50.89;100419.44;5154391;27;1685;-95
2022/05/05 09:05:31;;;;;;;;;;;;;;;9.02;50.91;100423.78;5151704;27;1790;-95
2022/05/05 09:07:58;;;;;;;;;;;;;;;9.02;51.21;100426.47;5118530;28;1652;-95
2022/05/05 09:10:27;;;;;;;;;;;;;;;9.02;50.88;100423.78;5124357;28;2056;-95
2022/05/05 09:12:54;;;;;;;;;;;;;;;9.03;50.94;100427.28;5161163;27;1554;-95
2022/05/05 09:15:21;;;;;;;;;;;;;;;9.03;51.02;100427.28;5127159;27;1346;-95
2022/05/05 09:17:48;;;;;;;;;;;;;;;9.03;51.19;100438.88;5108206;28;1882;-96
2022/05/05 09:22:58;;;;;;;;;;;;;;;9.08;51.04;100433.66;5113024;28;1749;-95
2022/05/05 09:48:18;;;;;;;;;;;;;;;9.14;51.67;100432.00;5080878;28;1576;-96
2022/05/05 09:50:46;;;;;;;;;;;;;;;9.17;51.70;100438.81;5071833;28;937;-96
2022/05/05 09:58:42;;;;;;;;;;;;;;;9.23;51.17;100428.03;5038783;28;1887;-96
2022/05/05 10:01:10;;;;;;;;;;;;;;;9.25;50.89;100436.72;5055000;28;1076;-96
2022/05/05 10:06:21;;;;;;;;;;;;;;;9.26;51.09;100442.91;5033163;28;1402;-96
2022/05/05 10:08:48;;;;;;;;;;;;;;;9.27;51.05;100434.63;5037383;28;1664;-96
2022/05/05 10:11:15;;;;;;;;;;;;;;;9.29;51.20;100437.09;5071481;28;886;-96
2022/05/05 10:13:42;;;;;;;;;;;;;;;9.29;51.06;100434.41;5048372;28;1844;-96
2022/05/05 10:16:09;;;;;;;;;;;;;;;9.32;51.13;100433.97;5033967;28;1675;-96
2022/05/05 10:18:38;;;;;;;;;;;;;;;9.33;51.22;100438.34;5050617;28;1902;-96
2022/05/05 10:21:06;;;;;;;;;;;;;;;9.35;51.19;100432.72;5045830;28;1625;-96
2022/05/05 10:23:34;;;;;;;;;;;;;;;9.34;51.13;100429.22;5048813;28;2841;-96
2022/05/05 10:26:00;;;;;;;;;;;;;;;9.36;51.32;100437.91;5069672;28;1422;-96
2022/05/05 10:28:31;;;;;;;;;;;;;;;9.37;51.23;100436.84;5048634;28;2472;-96
2022/05/05 10:30:58;;;;;;;;;;;;;;;9.39;51.20;100437.47;5039791;28;1483;-96
2022/05/05 10:33:25;;;;;;;;;;;;;;;9.39;51.41;100437.47;5048470;28;1297;-96
2022/05/05 10:35:53;;;;;;;;;;;;;;;9.40;51.33;100438.28;5046087;28;1255;-96
2022/05/05 10:38:20;;;;;;;;;;;;;;;9.43;51.33;100437.88;5032460;28;2060;-96
2022/05/05 10:40:46;;;;;;;;;;;;;;;9.45;51.40;100435.78;5049301;28;2687;-96
2022/05/05 10:43:13;;;;;;;;;;;;;;;9.46;51.13;100432.88;5055793;28;1489;-96
2022/05/05 10:45:40;;;;;;;;;;;;;;;9.47;51.38;100436.38;5036066;28;1301;-96
2022/05/05 10:48:07;;;;;;;;;;;;;;;9.47;51.56;100431.84;5048422;28;1397;-96
2022/05/05 10:50:37;;;;;;;;;;;;;;;9.48;51.33;100436.19;5047936;28;1227;-96
2022/05/05 10:53:04;;;;;;;;;;;;;;;9.51;51.64;100434.94;5014324;28;1481;-96
2022/05/05 10:55:30;;;;;;;;;;;;;;;9.51;51.38;100426.88;5041324;28;1502;-96
2022/05/05 10:57:57;;;;;;;;;;;;;;;9.52;51.60;100423.94;5039948;28;1250;-96
2022/05/05 11:00:24;;;;;;;;;;;;;;;9.53;51.57;100424.81;5029470;28;1899;-96
2022/05/05 11:02:51;;;;;;;;;;;;;;;9.54;51.67;100423.75;5028261;28;1377;-96
2022/05/05 11:05:18;;;;;;;;;;;;;;;9.56;51.52;100421.69;5044831;28;1222;-96
2022/05/05 11:07:46;;;;;;;;;;;;;;;9.57;51.78;100417.94;5069215;28;1253;-96
2022/05/05 11:10:13;;;;;;;;;;;;;;;9.59;51.68;100420.41;5051269;28;1809;-96
2022/05/05 11:12:41;;;;;;;;;;;;;;;9.61;51.64;100423.69;5031998;28;1478;-96
2022/05/05 11:23:20;;;;;;;;;;;;;;;9.67;51.84;100420.97;5031284;28;1389;-96
2022/05/05 11:25:49;;;;;;;;;;;;;;;9.68;51.84;100433.38;5030062;28;1354;-96
2022/05/05 11:28:16;;;;;;;;;;;;;;;9.70;51.78;100425.09;5046391;28;1706;-96
2022/05/05 11:30:43;;;;;;;;;;;;;;;9.71;51.97;100426.75;5029784;28;1924;-96
2022/05/05 11:33:10;;;;;;;;;;;;;;;9.71;51.99;100422.19;5026078;28;1415;-96
2022/05/05 11:35:37;;;;;;;;;;;;;;;9.71;52.21;100430.25;5026129;28;2122;-96
2022/05/05 11:38:03;;;;;;;;;;;;;;;9.72;52.19;100433.78;5026348;28;1361;-96
2022/05/05 11:40:30;;;;;;;;;;;;;;;9.74;52.24;100437.06;5025187;28;2155;-96
2022/05/05 11:45:41;;;;;;;;;;;;;;;9.78;52.05;100428.34;5015608;28;1566;-96
2022/05/05 11:48:08;;;;;;;;;;;;;;;9.77;52.13;100437.47;5015754;28;2189;-96
2022/05/05 11:50:34;;;;;;;;;;;;;;;9.80;52.06;100430.81;5025680;28;1721;-96
2022/05/05 11:53:01;;;;;;;;;;;;;;;9.82;52.23;100417.97;5042096;28;1385;-96
2022/05/05 11:55:28;;;;;;;;;;;;;;;9.84;52.14;100423.97;5030627;28;1861;-96
2022/05/05 11:57:58;;;;;;;;;;;;;;;9.86;52.02;100426.44;5049082;28;1362;-96
2022/05/05 12:03:09;;;;;;;;;;;;;;;9.90;52.16;100424.94;5017987;28;2211;-96
2022/05/05 12:05:36;;;;;;;;;;;;;;;9.92;52.42;100436.31;5026564;28;2366;-96
2022/05/05 12:08:10;;;;;;;;;;;;;;;9.93;52.31;100428.03;5046658;28;2096;-96
2022/05/05 12:10:39;;;;;;;;;;;;;;;9.94;52.50;100427.00;5049471;28;1192;-96
2022/05/05 12:13:10;;;;;;;;;;;;;;;9.96;52.43;100432.16;5050219;28;1498;-96
2022/05/05 12:15:38;;;;;;;;;;;;;;;9.97;52.47;100426.56;5049153;28;899;-96
2022/05/05 12:18:05;;;;;;;;;;;;;;;10.00;52.58;100422.63;5031311;28;1239;-96
2022/05/05 12:20:32;;;;;;;;;;;;;;;10.02;52.52;100420.50;5032347;28;1948;-96
2022/05/05 12:23:00;;;;;;;;;;;;;;;10.02;52.68;100421.31;5030208;28;1437;-96
2022/05/05 12:25:39;;;;;;;;;;;;;;;10.04;52.82;100420.31;5009681;28;2385;-96
2022/05/05 12:28:08;;;;;;;;;;;;;;;10.06;52.79;100427.13;5044502;28;1506;-96
2022/05/05 12:30:35;;;;;;;;;;;;;;;10.08;52.71;100429.56;5012569;28;1238;-96
2022/05/05 12:33:02;;;;;;;;;;;;;;;10.10;52.90;100428.31;5017930;28;1256;-96
2022/05/05 12:35:30;;;;;;;;;;;;;;;10.12;52.93;100430.81;5009677;28;1379;-96
2022/05/05 12:37:57;;;;;;;;;;;;;;;10.13;53.09;100429.75;5035551;28;1332;-96
2022/05/05 12:40:25;;;;;;;;;;;;;;;10.15;53.02;100422.28;5037982;28;1899;-96
2022/05/05 12:42:52;;;;;;;;;;;;;;;10.17;53.17;100428.25;5038940;28;1352;-96
2022/05/05 12:48:06;;;;;;;;;;;;;;;10.21;53.42;100430.28;5039326;28;1334;-96
2022/05/05 12:50:46;;;;;;;;;;;;;;;10.23;53.25;100430.06;5039436;28;1208;-96
2022/05/05 13:04:21;;;;;;;;;;;;;;;10.35;53.90;100430.19;5152616;22;3760;-96
2022/05/05 13:09:35;;;;;;;;;;;;;;;10.37;53.97;100428.94;5056119;28;1533;-96
2022/05/05 13:23:09;;;;;;;;;;;;;;;10.48;54.38;100427.41;5050147;28;1149;-96
2022/05/05 13:34:19;;;;;;;;;;;;;;;10.57;54.74;100428.75;4975216;28;1212;-96
2022/05/05 13:36:48;;;;;;;;;;;;;;;10.58;54.74;100433.09;4962251;29;1225;-96
2022/05/05 13:39:16;;;;;;;;;;;;;;;10.61;54.89;100427.25;4959278;28;1918;-96
2022/05/05 13:50:26;;;;;;;;;;;;;;;10.70;55.16;100435.88;5037697;28;1234;-96
2022/05/05 13:52:59;;;;;;;;;;;;;;;10.71;55.27;100434.84;5032696;28;1353;-96
2022/05/05 13:58:07;;;;;;;;;;;;;;;10.76;55.27;100440.34;5010497;28;1229;-96
2022/05/05 14:00:35;;;;;;;;;;;;;;;10.77;55.41;100442.03;5008925;28;1883;-96
2022/05/05 14:03:23;;;;;;;;;;;;;;;10.80;55.33;100435.38;5015153;28;1590;-96
2022/05/05 14:05:50;;;;;;;;;;;;;;;10.80;55.48;100436.19;5013797;28;1343;-96
2022/05/05 14:13:54;;;;;;;;;;;;;;;10.84;55.36;100431.97;4995258;28;1150;-96
2022/05/05 14:19:02;;;;;;;;;;;;;;;10.90;55.57;100443.72;4999739;28;1964;-96
2022/05/05 14:24:34;;;;;;;;;;;;;;;10.94;55.45;100439.53;5016208;28;669;-96
2022/05/05 14:27:01;;;;;;;;;;;;;;;10.97;55.66;100435.56;5013212;28;1185;-96
2022/05/05 14:34:50;;;;;;;;;;;;;;;11.03;55.79;100440.91;5015582;28;1157;-96
2022/05/05 14:37:20;;;;;;;;;;;;;;;11.05;55.83;100440.66;5014499;28;1283;-96
2022/05/05 14:42:47;;;;;;;;;;;;;;;11.09;55.75;100441.88;4998681;28;1294;-96
2022/05/05 14:45:17;;;;;;;;;;;;;;;11.10;55.90;100449.72;5019755;28;1435;-96
2022/05/05 14:47:44;;;;;;;;;;;;;;;11.12;55.85;100444.13;5033011;28;1044;-96
2022/05/05 14:50:15;;;;;;;;;;;;;;;11.12;55.84;100442.25;5034553;28;1089;-96
2022/05/05 14:52:46;;;;;;;;;;;;;;;11.16;55.92;100453.38;5034731;28;1253;-96
2022/05/05 14:57:57;;;;;;;;;;;;;;;11.19;55.89;100458.31;5009417;28;1918;-95
2022/05/05 15:00:24;;;;;;;;;;;;;;;11.22;55.89;100455.19;5010763;28;2240;-94
2022/05/05 15:02:50;;;;;;;;;;;;;;;11.22;55.94;100460.56;5013003;28;4669;-95
2022/05/05 15:05:17;;;;;;;;;;;;;;;11.24;55.92;100461.19;5013863;28;3865;-93
2022/05/05 15:07:44;;;;;;;;;;;;;;;11.26;55.93;100466.31;5012621;28;2394;-96
2022/05/05 15:10:10;;;;;;;;;;;;;;;11.27;55.95;100465.31;5014565;28;3542;-94
2022/05/05 15:12:37;;;;;;;;;;;;;;;11.29;56.13;100465.88;5015010;28;1842;-94
2022/05/05 15:15:04;;;;;;;;;;;;;;;11.31;56.05;100467.31;5012571;28;2176;-94
2022/05/05 15:17:31;;;;;;;;;;;;;;;11.32;56.07;100471.66;5008993;28;2257;-95
2022/05/05 15:19:57;;;;;;;;;;;;;;;11.34;56.07;100477.63;5003249;28;1997;-95
2022/05/05 15:22:24;;;;;;;;;;;;;;;11.36;56.20;100470.16;5013291;28;2799;-94
2022/05/05 15:25:05;;;;;;;;;;;;;;;11.37;56.10;100479.06;4989853;28;2130;-95
2022/05/05 15:27:31;;;;;;;;;;;;;;;11.39;56.01;100476.16;5009291;28;2227;-95
2022/05/05 15:29:58;;;;;;;;;;;;;;;11.39;55.97;100474.25;5004995;28;2274;-95
2022/05/05 15:32:25;;;;;;;;;;;;;;;11.42;56.21;100475.69;5013077;28;2269;-94
2022/05/05 15:34:51;;;;;;;;;;;;;;;11.43;55.99;100482.72;5010333;28;2065;-95
2022/05/05 15:37:18;;;;;;;;;;;;;;;11.45;56.18;100480.63;4997483;28;2410;-92
2022/05/05 15:39:45;;;;;;;;;;;;;;;11.45;56.16;100480.63;5003209;28;2409;-94
2022/05/05 15:42:11;;;;;;;;;;;;;;;11.45;56.16;100486.84;5010541;28;2465;-95
2022/05/05 15:44:38;;;;;;;;;;;;;;;11.46;56.06;100485.78;5008049;28;1896;-94
2022/05/05 15:47:04;;;;;;;;;;;;;;;11.48;56.20;100486.38;5011466;28;2268;-94
2022/05/05 15:49:31;;;;;;;;;;;;;;;11.49;56.19;100488.03;5002000;28;2308;-95